Dayton, OH (45435)

6:53 AM EDT on August 28, 2015 (GMT -0400)
Gardenview | | Change Station
CLOSE
Current Station
Personal Weather Station
Location: Dayton, OH
Elevation: 958 ft
Nearby Weather Stations

Elev 958 ft 39.76 °N, 84.08 °W | Updated 1 minute ago

Clear
Clear
53.2 °F
Feels Like 53.2 °F
N
0.0
Wind Variable Wind from South

Today
High -- | Low -- °F
--% Chance of Precip.
Yesterday
High -- | Low -- °F
Precip. -- in
7:00 AM 8:14 PM
Waxing Gibbous, 97% visible
Pressure 30.17 in
Visibility 7.0 miles
Clouds Clear
Dew Point 52 °F
Humidity 96%
Rainfall 0.00 in
Snow Depth Not available.
UV 0 out of 12
Pollen 9.80 out of 12
Air Quality Not available.
Flu Activity Not available.
METAR KFFO 280958Z 00000KT 7SM BCFG CLR 13/12 A3017 RMK AO2A SLP217 T01340121
Pressure 30.17 in
Visibility 7.0 miles
Clouds Clear
Dew Point 52 °F
Humidity 96%
Rainfall 0.00 in
Snow Depth Not available.
UV 0 out of 12
Pollen 9.80 out of 12
Air Quality Not available.
Flu Activity Not available.
METAR KFFO 280958Z 00000KT 7SM BCFG CLR 13/12 A3017 RMK AO2A SLP217 T01340121

10-Day Weather Forecast

×

Almanac

Astronomy

Aug. 28, 2015 Rise Set
Actual Time
Civil Twilight
Nautical Twilight
Astronomical Twilight
Moon
Length of Visible Light
Length of Day
Tomorrow will be .
, % of the Moon is Illuminated

Today's Extremes

State Highs State Lows

Community

WunderPhotos

Upload Photos

1,850,368 photos uploaded!

WunderBlogs® & News

Nearby

Air Quality

  Air Quality AQ Index Pollutant
Not available.

Snow Depth

Station Depth Elevation

Earthquake Activity

City Distance Mag. Time & Date
Minimum magnitude displayed is 2.5.

Coastal Water Temperatures

Place Temperature

Stations

Nearby Weather Stations

Station Location Temp. Windchill Dew Point Humidity Wind Precip. Elev Updated Type